Time;durP1;ratioP1;P1;durP2;ratioP2;P2;SDS_P1;SDS_P2;PMS_P1;PMS_P2;Temp;Humidity;BMP_temperature;BMP_pressure;BME280_temperature;BME280_humidity;BME280_pressure;Samples;Min_cycle;Max_cycle;Signal;HPM_P1;HPM_P2
2022/09/11 00:00:15;;;;;;;;;;;20.30;99.90;;;;;;4593440;19;19915;-27
2022/09/11 00:02:06;;;;;;;;;;;20.30;99.90;;;;;;4593123;19;20254;-28
2022/09/11 00:03:37;;;;;;;;;;;20.30;99.90;;;;;;4593804;19;19921;-24
2022/09/11 00:05:09;;;;;;;;;;;20.30;99.90;;;;;;4591834;19;19952;-25
2022/09/11 00:06:40;;;;;;;;;;;20.30;99.90;;;;;;4592115;19;20226;-25
2022/09/11 00:08:12;;;;;;;;;;;20.30;99.90;;;;;;4591505;19;19918;-25
2022/09/11 00:09:45;;;;;;;;;;;20.30;99.90;;;;;;4592788;19;19940;-25
2022/09/11 00:11:17;;;;;;;;;;;20.30;99.90;;;;;;4592967;19;19982;-25
2022/09/11 00:12:48;;;;;;;;;;;20.30;99.90;;;;;;4593698;19;19919;-25
2022/09/11 00:14:20;;;;;;;;;;;20.30;99.90;;;;;;4592545;19;19915;-25
2022/09/11 00:15:53;;;;;;;;;;;20.30;99.90;;;;;;4593566;19;19982;-25
2022/09/11 00:17:26;;;;;;;;;;;20.30;99.90;;;;;;4592842;19;20345;-27
2022/09/11 00:18:58;;;;;;;;;;;20.30;99.90;;;;;;4593011;19;19915;-26
2022/09/11 00:20:29;;;;;;;;;;;20.30;99.90;;;;;;4593004;19;19926;-27
2022/09/11 00:22:00;;;;;;;;;;;20.30;99.90;;;;;;4593422;19;19927;-27
2022/09/11 00:23:32;;;;;;;;;;;20.30;99.90;;;;;;4592940;19;19919;-25
2022/09/11 00:25:03;;;;;;;;;;;20.30;99.90;;;;;;4592884;19;20487;-25
2022/09/11 00:26:34;;;;;;;;;;;20.30;99.90;;;;;;4590610;19;19931;-25
2022/09/11 00:28:05;;;;;;;;;;;20.30;99.90;;;;;;4592356;19;19942;-25
2022/09/11 00:29:36;;;;;;;;;;;20.30;99.90;;;;;;4591689;19;20344;-25
2022/09/11 00:31:11;;;;;;;;;;;20.30;99.90;;;;;;4593375;19;19919;-26
2022/09/11 00:32:42;;;;;;;;;;;20.30;99.90;;;;;;4593234;19;19919;-25
2022/09/11 00:34:13;;;;;;;;;;;20.30;99.90;;;;;;4592647;19;19923;-25
2022/09/11 00:35:53;;;;;;;;;;;20.30;99.90;;;;;;4592841;19;20341;-26
2022/09/11 00:37:25;;;;;;;;;;;20.30;99.90;;;;;;4591412;19;19921;-25
2022/09/11 00:38:56;;;;;;;;;;;20.30;99.90;;;;;;4592248;19;19915;-27
2022/09/11 00:40:27;;;;;;;;;;;20.30;99.90;;;;;;4592396;19;20257;-25
2022/09/11 00:41:59;;;;;;;;;;;20.30;99.90;;;;;;4592563;19;19931;-27
2022/09/11 00:43:30;;;;;;;;;;;20.20;99.90;;;;;;4592703;19;20321;-26
2022/09/11 00:45:02;;;;;;;;;;;20.30;99.90;;;;;;4593025;19;19943;-28
2022/09/11 00:46:36;;;;;;;;;;;20.30;99.90;;;;;;4591549;19;20274;-26
2022/09/11 00:48:07;;;;;;;;;;;20.30;99.90;;;;;;4592493;19;19926;-25
2022/09/11 00:49:45;;;;;;;;;;;20.30;99.90;;;;;;4592659;19;19982;-26
2022/09/11 00:51:20;;;;;;;;;;;20.30;99.90;;;;;;4592873;19;19907;-25
2022/09/11 00:53:02;;;;;;;;;;;20.30;99.90;;;;;;4592160;19;19967;-25
2022/09/11 00:54:34;;;;;;;;;;;20.30;99.90;;;;;;4591237;19;19931;-25
2022/09/11 00:56:06;;;;;;;;;;;20.20;99.90;;;;;;4591255;19;19915;-25
2022/09/11 00:57:39;;;;;;;;;;;20.30;99.90;;;;;;4592279;19;19914;-25
2022/09/11 00:59:10;;;;;;;;;;;20.20;99.90;;;;;;4592037;19;19919;-26
2022/09/11 01:00:42;;;;;;;;;;;20.10;99.90;;;;;;4591927;19;19926;-25
2022/09/11 01:02:14;;;;;;;;;;;20.10;99.90;;;;;;4591118;19;19911;-25
2022/09/11 01:03:45;;;;;;;;;;;20.00;99.90;;;;;;4591558;19;19922;-25
2022/09/11 01:05:15;;;;;;;;;;;20.00;99.90;;;;;;4590351;19;19923;-25
2022/09/11 01:06:48;;;;;;;;;;;20.00;99.90;;;;;;4591046;19;19975;-25
2022/09/11 01:08:19;;;;;;;;;;;20.00;99.90;;;;;;4591014;19;19923;-25
2022/09/11 01:09:50;;;;;;;;;;;20.00;99.90;;;;;;4589715;19;19919;-26
2022/09/11 01:11:34;;;;;;;;;;;20.10;99.90;;;;;;4590591;19;19911;-25
2022/09/11 01:13:10;;;;;;;;;;;20.10;99.90;;;;;;4592830;19;19930;-27
2022/09/11 01:14:44;;;;;;;;;;;20.10;99.90;;;;;;4593470;19;19996;-25
2022/09/11 01:16:33;;;;;;;;;;;20.00;99.90;;;;;;4590898;19;19948;-26
2022/09/11 01:18:09;;;;;;;;;;;20.00;99.90;;;;;;4590570;19;19915;-25
2022/09/11 01:19:59;;;;;;;;;;;20.00;99.90;;;;;;4591271;19;20245;-25
2022/09/11 01:21:51;;;;;;;;;;;20.00;99.90;;;;;;4591731;19;19919;-25
2022/09/11 01:23:29;;;;;;;;;;;20.00;99.90;;;;;;4591489;19;19952;-27
2022/09/11 01:25:03;;;;;;;;;;;20.00;99.90;;;;;;4590751;19;19926;-25
2022/09/11 01:26:37;;;;;;;;;;;20.00;99.90;;;;;;4590681;19;19918;-25
2022/09/11 01:28:12;;;;;;;;;;;20.00;99.90;;;;;;4591654;19;19911;-25
2022/09/11 01:29:43;;;;;;;;;;;20.00;99.90;;;;;;4590332;19;19937;-28
2022/09/11 01:31:15;;;;;;;;;;;20.00;99.90;;;;;;4591359;19;19918;-25
2022/09/11 01:33:05;;;;;;;;;;;20.00;99.90;;;;;;4591444;19;19915;-26
2022/09/11 01:34:38;;;;;;;;;;;20.00;99.90;;;;;;4591341;19;19911;-25
2022/09/11 01:36:12;;;;;;;;;;;20.00;99.90;;;;;;4590024;19;19927;-25
2022/09/11 01:37:53;;;;;;;;;;;20.00;99.90;;;;;;4590203;19;19942;-25
2022/09/11 01:39:24;;;;;;;;;;;20.00;99.90;;;;;;4591239;19;19923;-26
2022/09/11 01:40:56;;;;;;;;;;;20.00;99.90;;;;;;4590396;19;19932;-26
2022/09/11 01:42:27;;;;;;;;;;;20.00;99.90;;;;;;4590743;19;20308;-25
2022/09/11 01:44:17;;;;;;;;;;;20.00;99.90;;;;;;4590277;19;19952;-25
2022/09/11 01:45:48;;;;;;;;;;;20.00;99.90;;;;;;4591308;19;19907;-25
2022/09/11 01:47:19;;;;;;;;;;;20.00;99.90;;;;;;4588874;19;20321;-25
2022/09/11 01:48:54;;;;;;;;;;;20.00;99.90;;;;;;4590672;19;19919;-26
2022/09/11 01:50:25;;;;;;;;;;;20.00;99.90;;;;;;4590111;19;19927;-25
2022/09/11 01:51:58;;;;;;;;;;;20.00;99.90;;;;;;4590558;19;19926;-27
2022/09/11 01:53:37;;;;;;;;;;;20.00;99.90;;;;;;4590630;19;19926;-27
2022/09/11 01:55:11;;;;;;;;;;;20.00;99.90;;;;;;4589804;19;19956;-26
2022/09/11 01:56:45;;;;;;;;;;;20.00;99.90;;;;;;4592106;19;19919;-26
2022/09/11 01:58:18;;;;;;;;;;;20.00;99.90;;;;;;4591387;19;19923;-25
2022/09/11 01:59:51;;;;;;;;;;;20.00;99.90;;;;;;4590689;19;20364;-27
2022/09/11 02:01:23;;;;;;;;;;;20.00;99.90;;;;;;4589614;19;19970;-25
2022/09/11 02:02:57;;;;;;;;;;;20.00;99.90;;;;;;4589849;19;19945;-26
2022/09/11 02:04:30;;;;;;;;;;;20.00;99.90;;;;;;4589864;19;19942;-25
2022/09/11 02:06:03;;;;;;;;;;;20.00;99.90;;;;;;4589506;19;19927;-26
2022/09/11 02:07:35;;;;;;;;;;;20.00;99.90;;;;;;4589193;19;19915;-28
2022/09/11 02:09:08;;;;;;;;;;;20.00;99.90;;;;;;4589097;19;19934;-25
2022/09/11 02:10:39;;;;;;;;;;;20.00;99.90;;;;;;4590962;19;19922;-26
2022/09/11 02:12:10;;;;;;;;;;;20.00;99.90;;;;;;4590434;19;20328;-26
2022/09/11 02:14:00;;;;;;;;;;;20.00;99.90;;;;;;4590370;19;19935;-25
2022/09/11 02:15:32;;;;;;;;;;;20.00;99.90;;;;;;4590482;19;19922;-26
2022/09/11 02:17:23;;;;;;;;;;;20.00;99.90;;;;;;4588371;19;19915;-27
2022/09/11 02:19:01;;;;;;;;;;;20.00;99.90;;;;;;4590874;19;19921;-25
2022/09/11 02:20:33;;;;;;;;;;;20.00;99.90;;;;;;4590376;19;19954;-27
2022/09/11 02:22:04;;;;;;;;;;;20.00;99.90;;;;;;4589311;19;20269;-27
2022/09/11 02:23:35;;;;;;;;;;;20.00;99.90;;;;;;4589479;19;19975;-25
2022/09/11 02:25:06;;;;;;;;;;;20.00;99.90;;;;;;4590636;19;19918;-26
2022/09/11 02:26:38;;;;;;;;;;;20.00;99.90;;;;;;4589869;19;19927;-25
2022/09/11 02:28:09;;;;;;;;;;;20.00;99.90;;;;;;4589060;19;20288;-25
2022/09/11 02:29:40;;;;;;;;;;;20.00;99.90;;;;;;4590293;19;20234;-25
2022/09/11 02:31:11;;;;;;;;;;;20.00;99.90;;;;;;4589967;19;19919;-25
2022/09/11 02:32:43;;;;;;;;;;;20.00;99.90;;;;;;4589723;19;20275;-25
2022/09/11 02:34:13;;;;;;;;;;;20.00;99.90;;;;;;4590111;19;19911;-26
2022/09/11 02:35:44;;;;;;;;;;;20.00;99.90;;;;;;4590824;19;20253;-26
2022/09/11 02:37:25;;;;;;;;;;;20.00;99.90;;;;;;4588983;19;19971;-25
2022/09/11 02:38:56;;;;;;;;;;;20.00;99.90;;;;;;4589957;19;19924;-25
2022/09/11 02:40:30;;;;;;;;;;;20.00;99.90;;;;;;4589832;19;19918;-24
2022/09/11 02:42:18;;;;;;;;;;;20.00;99.90;;;;;;4588972;19;19919;-26
2022/09/11 02:43:52;;;;;;;;;;;20.00;99.90;;;;;;4590515;19;19919;-25
2022/09/11 02:45:28;;;;;;;;;;;20.00;99.90;;;;;;4589945;19;20344;-25
2022/09/11 02:47:05;;;;;;;;;;;20.00;99.90;;;;;;4588237;19;20260;-25
2022/09/11 02:49:06;;;;;;;;;;;20.00;99.90;;;;;;4589917;19;19932;-26
2022/09/11 02:50:43;;;;;;;;;;;20.00;99.90;;;;;;4587651;19;19914;-25
2022/09/11 02:52:17;;;;;;;;;;;20.00;99.90;;;;;;4588483;19;19919;-27
2022/09/11 02:53:48;;;;;;;;;;;20.00;99.90;;;;;;4587676;19;20333;-25
2022/09/11 02:55:21;;;;;;;;;;;20.00;99.90;;;;;;4587376;19;19926;-25
2022/09/11 02:57:01;;;;;;;;;;;20.00;99.90;;;;;;4587845;19;19945;-25
2022/09/11 02:58:55;;;;;;;;;;;20.00;99.90;;;;;;4587898;19;19928;-26
2022/09/11 03:00:26;;;;;;;;;;;20.00;99.90;;;;;;4587668;19;19914;-26
2022/09/11 03:02:00;;;;;;;;;;;20.00;99.90;;;;;;4587450;19;19919;-25
2022/09/11 03:03:41;;;;;;;;;;;20.00;99.90;;;;;;4587645;19;19911;-25
2022/09/11 03:05:12;;;;;;;;;;;20.00;99.90;;;;;;4587695;19;19910;-26
2022/09/11 03:06:43;;;;;;;;;;;20.00;99.90;;;;;;4587430;19;19926;-26
2022/09/11 03:08:16;;;;;;;;;;;20.00;99.90;;;;;;4585914;19;19927;-25
2022/09/11 03:09:46;;;;;;;;;;;20.00;99.90;;;;;;4586417;19;19915;-27
2022/09/11 03:11:18;;;;;;;;;;;20.00;99.90;;;;;;4587991;19;19937;-25
2022/09/11 03:12:49;;;;;;;;;;;20.00;99.90;;;;;;4588098;19;20009;-28
2022/09/11 03:14:21;;;;;;;;;;;20.00;99.90;;;;;;4586923;19;20263;-25
2022/09/11 03:15:53;;;;;;;;;;;20.00;99.90;;;;;;4587242;19;19911;-28
2022/09/11 03:17:24;;;;;;;;;;;20.00;99.90;;;;;;4587849;19;19921;-26
2022/09/11 03:18:55;;;;;;;;;;;20.00;99.90;;;;;;4587191;19;19940;-25
2022/09/11 03:20:26;;;;;;;;;;;20.00;99.90;;;;;;4587202;19;19927;-25
2022/09/11 03:21:57;;;;;;;;;;;20.00;99.90;;;;;;4587925;19;19915;-26
2022/09/11 03:23:28;;;;;;;;;;;20.00;99.90;;;;;;4587806;19;20013;-25
2022/09/11 03:24:59;;;;;;;;;;;20.00;99.90;;;;;;4587149;19;19939;-25
2022/09/11 03:26:34;;;;;;;;;;;20.00;99.90;;;;;;4586513;19;19926;-28
2022/09/11 03:28:05;;;;;;;;;;;20.00;99.90;;;;;;4587459;19;19942;-25
2022/09/11 03:29:36;;;;;;;;;;;20.00;99.90;;;;;;4592349;19;19918;-25
2022/09/11 03:31:08;;;;;;;;;;;20.00;99.90;;;;;;4591716;19;20082;-25
2022/09/11 03:32:39;;;;;;;;;;;19.90;99.90;;;;;;4591959;19;19939;-27
2022/09/11 03:34:10;;;;;;;;;;;19.90;99.90;;;;;;4592219;19;20670;-27
2022/09/11 03:35:44;;;;;;;;;;;19.90;99.90;;;;;;4591661;19;19941;-26
2022/09/11 03:37:14;;;;;;;;;;;20.00;99.90;;;;;;4591492;19;19915;-25
2022/09/11 03:38:46;;;;;;;;;;;19.90;99.90;;;;;;4591677;19;19992;-25
2022/09/11 03:40:19;;;;;;;;;;;20.00;99.90;;;;;;4593971;19;19915;-25
2022/09/11 03:41:50;;;;;;;;;;;19.90;99.90;;;;;;4592525;19;19923;-27
2022/09/11 03:43:22;;;;;;;;;;;19.90;99.90;;;;;;4593381;19;19922;-25
2022/09/11 03:44:53;;;;;;;;;;;19.90;99.90;;;;;;4593871;19;19919;-26
2022/09/11 03:46:24;;;;;;;;;;;19.90;99.90;;;;;;4593664;19;19935;-25
2022/09/11 03:47:55;;;;;;;;;;;19.90;99.90;;;;;;4592443;19;19982;-26
2022/09/11 03:49:26;;;;;;;;;;;20.00;99.90;;;;;;4593306;19;19919;-27
2022/09/11 03:50:58;;;;;;;;;;;19.90;99.90;;;;;;4592188;19;20002;-25
2022/09/11 03:52:29;;;;;;;;;;;19.90;99.90;;;;;;4593771;19;19956;-26
2022/09/11 03:54:00;;;;;;;;;;;20.00;99.90;;;;;;4593335;19;19921;-25
2022/09/11 03:55:31;;;;;;;;;;;19.90;99.90;;;;;;4592360;19;19911;-26
2022/09/11 03:57:02;;;;;;;;;;;19.90;99.90;;;;;;4593644;19;20309;-25
2022/09/11 03:58:33;;;;;;;;;;;19.90;99.90;;;;;;4593373;19;19942;-26
2022/09/11 04:00:04;;;;;;;;;;;19.90;99.90;;;;;;4593421;19;19919;-25
2022/09/11 04:01:36;;;;;;;;;;;19.90;99.90;;;;;;4590850;19;19994;-25
2022/09/11 04:03:07;;;;;;;;;;;19.90;99.90;;;;;;4592967;19;19926;-26
2022/09/11 04:04:40;;;;;;;;;;;19.90;99.90;;;;;;4592413;19;19922;-26
2022/09/11 04:06:11;;;;;;;;;;;19.90;99.90;;;;;;4592482;19;20333;-26
2022/09/11 04:07:42;;;;;;;;;;;19.90;99.90;;;;;;4592345;19;19926;-26
2022/09/11 04:09:13;;;;;;;;;;;19.90;99.90;;;;;;4591709;19;19919;-26
2022/09/11 04:10:45;;;;;;;;;;;19.90;99.90;;;;;;4592831;19;20263;-25
2022/09/11 04:12:16;;;;;;;;;;;19.90;99.90;;;;;;4593131;19;19915;-26
2022/09/11 04:13:47;;;;;;;;;;;19.90;99.90;;;;;;4593544;19;19919;-26
2022/09/11 04:15:18;;;;;;;;;;;19.90;99.90;;;;;;4593139;19;19925;-25
2022/09/11 04:16:50;;;;;;;;;;;19.90;99.90;;;;;;4592937;19;19915;-26
2022/09/11 04:18:21;;;;;;;;;;;19.90;99.90;;;;;;4591718;19;19943;-25
2022/09/11 04:19:52;;;;;;;;;;;19.90;99.90;;;;;;4593128;19;19929;-26
2022/09/11 04:21:23;;;;;;;;;;;19.90;99.90;;;;;;4592818;19;19940;-25
2022/09/11 04:22:54;;;;;;;;;;;19.90;99.90;;;;;;4592965;19;19915;-25
2022/09/11 04:24:25;;;;;;;;;;;19.90;99.90;;;;;;4592918;19;19915;-27
2022/09/11 04:25:57;;;;;;;;;;;19.90;99.90;;;;;;4593094;19;19925;-28
2022/09/11 04:27:28;;;;;;;;;;;19.90;99.90;;;;;;4591173;19;19950;-25
2022/09/11 04:28:59;;;;;;;;;;;19.90;99.90;;;;;;4592745;19;20337;-25
2022/09/11 04:30:30;;;;;;;;;;;19.90;99.90;;;;;;4592907;19;19934;-25
2022/09/11 04:32:01;;;;;;;;;;;19.90;99.90;;;;;;4592767;19;19915;-25
2022/09/11 04:33:33;;;;;;;;;;;19.90;99.90;;;;;;4592743;19;19918;-26
2022/09/11 04:35:04;;;;;;;;;;;19.90;99.90;;;;;;4591472;19;19915;-25
2022/09/11 04:36:35;;;;;;;;;;;19.90;99.90;;;;;;4592823;19;19974;-25
2022/09/11 04:38:06;;;;;;;;;;;19.90;99.90;;;;;;4591553;19;19919;-26
2022/09/11 04:39:38;;;;;;;;;;;19.90;99.90;;;;;;4590384;19;19915;-26
2022/09/11 04:41:09;;;;;;;;;;;20.00;99.90;;;;;;4592158;19;19925;-25
2022/09/11 04:42:40;;;;;;;;;;;20.00;99.90;;;;;;4592718;19;19918;-26
2022/09/11 04:44:12;;;;;;;;;;;19.90;99.90;;;;;;4592559;19;19934;-25
2022/09/11 04:45:43;;;;;;;;;;;20.00;99.90;;;;;;4592570;19;19983;-26
2022/09/11 04:47:15;;;;;;;;;;;19.90;99.90;;;;;;4591519;19;19946;-25
2022/09/11 04:48:47;;;;;;;;;;;19.90;99.90;;;;;;4593071;19;20247;-26
2022/09/11 04:50:18;;;;;;;;;;;20.00;99.90;;;;;;4592308;19;19918;-26
2022/09/11 04:51:49;;;;;;;;;;;19.90;99.90;;;;;;4592198;19;19927;-25
2022/09/11 04:53:20;;;;;;;;;;;19.90;99.90;;;;;;4592989;19;19942;-26
2022/09/11 04:54:51;;;;;;;;;;;19.90;99.90;;;;;;4592745;19;19919;-26
2022/09/11 04:56:25;;;;;;;;;;;19.90;99.90;;;;;;4592242;19;19921;-26
2022/09/11 04:57:56;;;;;;;;;;;19.90;99.90;;;;;;4592104;19;20400;-25
2022/09/11 04:59:27;;;;;;;;;;;19.90;99.90;;;;;;4592401;19;19923;-25
2022/09/11 05:00:58;;;;;;;;;;;19.90;99.90;;;;;;4592134;19;19910;-26
2022/09/11 05:02:29;;;;;;;;;;;19.90;99.90;;;;;;4590782;19;20323;-24
2022/09/11 05:04:00;;;;;;;;;;;19.80;99.90;;;;;;4591463;19;19935;-24
2022/09/11 05:05:33;;;;;;;;;;;19.90;99.90;;;;;;4592274;19;19919;-25
2022/09/11 05:07:05;;;;;;;;;;;20.00;99.90;;;;;;4590743;19;19930;-24
2022/09/11 05:08:36;;;;;;;;;;;20.00;99.90;;;;;;4591780;19;19926;-25
2022/09/11 05:10:07;;;;;;;;;;;20.00;99.90;;;;;;4591790;19;19915;-26
2022/09/11 05:11:39;;;;;;;;;;;20.00;99.90;;;;;;4592511;19;20234;-27
2022/09/11 05:13:10;;;;;;;;;;;20.10;99.90;;;;;;4592921;19;19921;-25
2022/09/11 05:14:41;;;;;;;;;;;20.10;99.90;;;;;;4591763;19;19938;-24
2022/09/11 05:16:14;;;;;;;;;;;20.10;99.90;;;;;;4592109;19;19919;-26
2022/09/11 05:17:47;;;;;;;;;;;20.10;99.90;;;;;;4591588;19;19946;-25
2022/09/11 05:19:18;;;;;;;;;;;20.10;99.90;;;;;;4591702;19;20337;-25
2022/09/11 05:20:59;;;;;;;;;;;20.20;99.90;;;;;;4590734;19;19923;-26
2022/09/11 05:22:31;;;;;;;;;;;20.10;99.90;;;;;;4590498;19;20306;-24
2022/09/11 05:24:03;;;;;;;;;;;20.10;99.90;;;;;;4590345;19;19918;-25
2022/09/11 05:25:35;;;;;;;;;;;20.10;99.90;;;;;;4591221;19;20002;-24
2022/09/11 05:27:08;;;;;;;;;;;20.10;99.90;;;;;;4590708;19;19919;-27
2022/09/11 05:28:39;;;;;;;;;;;20.10;99.90;;;;;;4591990;19;19939;-25
2022/09/11 05:30:10;;;;;;;;;;;20.10;99.90;;;;;;4591555;19;19919;-26
2022/09/11 05:31:41;;;;;;;;;;;20.10;99.90;;;;;;4591224;19;19919;-24
2022/09/11 05:33:12;;;;;;;;;;;20.10;99.90;;;;;;4592309;19;19948;-27
2022/09/11 05:34:44;;;;;;;;;;;20.10;99.90;;;;;;4591752;19;20321;-23
2022/09/11 05:36:16;;;;;;;;;;;20.20;99.90;;;;;;4591405;19;20258;-25
2022/09/11 05:37:47;;;;;;;;;;;20.20;99.90;;;;;;4591012;19;19940;-26
2022/09/11 05:39:19;;;;;;;;;;;20.20;99.90;;;;;;4591500;19;19919;-23
2022/09/11 05:40:51;;;;;;;;;;;20.20;99.90;;;;;;4591691;19;19923;-25
2022/09/11 05:42:22;;;;;;;;;;;20.10;99.90;;;;;;4591015;19;20046;-24
2022/09/11 05:43:57;;;;;;;;;;;20.20;99.90;;;;;;4588421;19;20364;-25
2022/09/11 05:45:27;;;;;;;;;;;20.20;99.90;;;;;;4591504;19;19915;-26
2022/09/11 05:46:59;;;;;;;;;;;20.20;99.90;;;;;;4590457;19;19914;-25
2022/09/11 05:48:30;;;;;;;;;;;20.20;99.90;;;;;;4590938;19;19919;-25
2022/09/11 05:50:01;;;;;;;;;;;20.20;99.90;;;;;;4589679;19;19923;-25
2022/09/11 05:51:34;;;;;;;;;;;20.20;99.90;;;;;;4588832;19;19923;-25
2022/09/11 05:53:05;;;;;;;;;;;20.20;99.90;;;;;;4590771;19;20332;-25
2022/09/11 05:54:36;;;;;;;;;;;20.20;99.90;;;;;;4591053;19;19925;-25
2022/09/11 05:56:08;;;;;;;;;;;20.20;99.90;;;;;;4590754;19;19926;-25
2022/09/11 05:57:39;;;;;;;;;;;20.20;99.90;;;;;;4591120;19;19914;-25
2022/09/11 05:59:13;;;;;;;;;;;20.20;99.90;;;;;;4590685;19;19961;-25
2022/09/11 06:00:46;;;;;;;;;;;20.20;99.90;;;;;;4590816;19;19911;-25
2022/09/11 06:02:17;;;;;;;;;;;20.20;99.90;;;;;;4589501;19;19974;-25
2022/09/11 06:03:48;;;;;;;;;;;20.30;99.90;;;;;;4591829;19;19922;-25
2022/09/11 06:05:20;;;;;;;;;;;20.20;99.90;;;;;;4589708;19;19929;-25
2022/09/11 06:06:51;;;;;;;;;;;20.20;99.90;;;;;;4590017;19;19925;-26
2022/09/11 06:08:22;;;;;;;;;;;20.30;99.90;;;;;;4589187;19;19946;-27
2022/09/11 06:09:54;;;;;;;;;;;20.30;99.90;;;;;;4590161;19;19930;-25
2022/09/11 06:11:25;;;;;;;;;;;20.20;99.90;;;;;;4589429;19;19919;-26
2022/09/11 06:12:56;;;;;;;;;;;20.30;99.90;;;;;;4588325;19;20002;-27
2022/09/11 06:14:27;;;;;;;;;;;20.30;99.90;;;;;;4589783;19;19915;-25
2022/09/11 06:15:58;;;;;;;;;;;20.30;99.90;;;;;;4589523;19;19958;-24
2022/09/11 06:17:29;;;;;;;;;;;20.30;99.90;;;;;;4588982;19;19929;-24
2022/09/11 06:19:01;;;;;;;;;;;20.30;99.90;;;;;;4588703;19;19918;-25
2022/09/11 06:20:32;;;;;;;;;;;20.30;99.90;;;;;;4592370;19;19947;-25
2022/09/11 06:22:03;;;;;;;;;;;20.30;99.90;;;;;;4590984;19;19923;-26
2022/09/11 06:23:34;;;;;;;;;;;20.40;99.90;;;;;;4590323;19;19989;-24
2022/09/11 06:25:06;;;;;;;;;;;20.40;99.90;;;;;;4590017;19;19963;-26
2022/09/11 06:26:37;;;;;;;;;;;20.40;99.90;;;;;;4588580;19;19915;-24
2022/09/11 06:28:08;;;;;;;;;;;20.40;99.90;;;;;;4588958;19;20367;-25
2022/09/11 06:29:39;;;;;;;;;;;20.40;99.90;;;;;;4588430;19;19918;-25
2022/09/11 06:31:11;;;;;;;;;;;20.30;99.90;;;;;;4588326;19;19911;-26
2022/09/11 06:32:42;;;;;;;;;;;20.30;99.90;;;;;;4590567;19;19947;-25
2022/09/11 06:34:13;;;;;;;;;;;20.30;99.90;;;;;;4590617;19;19923;-26
2022/09/11 06:35:54;;;;;;;;;;;20.40;99.90;;;;;;4590515;19;19915;-27
2022/09/11 06:37:25;;;;;;;;;;;20.40;99.90;;;;;;4590656;19;19918;-26
2022/09/11 06:38:57;;;;;;;;;;;20.40;99.90;;;;;;4589964;19;19963;-24
2022/09/11 06:40:29;;;;;;;;;;;20.40;99.90;;;;;;4589704;19;19923;-28
2022/09/11 06:42:01;;;;;;;;;;;20.30;99.90;;;;;;4589621;19;20289;-25
2022/09/11 06:43:32;;;;;;;;;;;20.40;99.90;;;;;;4589106;19;19918;-25
2022/09/11 06:45:06;;;;;;;;;;;20.40;99.90;;;;;;4587614;19;19968;-25
2022/09/11 06:46:38;;;;;;;;;;;20.40;99.90;;;;;;4588677;19;19927;-25
2022/09/11 06:48:11;;;;;;;;;;;20.40;99.90;;;;;;4587758;19;19941;-23
2022/09/11 06:49:42;;;;;;;;;;;20.40;99.90;;;;;;4590740;19;19918;-24
2022/09/11 06:51:13;;;;;;;;;;;20.40;99.90;;;;;;4589265;19;19926;-25
2022/09/11 06:52:44;;;;;;;;;;;20.30;99.90;;;;;;4589555;19;19926;-25
2022/09/11 06:54:16;;;;;;;;;;;20.30;99.90;;;;;;4589782;19;19935;-25
2022/09/11 06:55:48;;;;;;;;;;;20.30;99.90;;;;;;4588814;19;19922;-25
2022/09/11 06:57:19;;;;;;;;;;;20.30;99.90;;;;;;4588651;19;19915;-27
2022/09/11 06:58:51;;;;;;;;;;;20.40;99.90;;;;;;4588922;19;19926;-26
2022/09/11 07:00:23;;;;;;;;;;;20.40;99.90;;;;;;4589754;19;19974;-26
2022/09/11 07:01:54;;;;;;;;;;;20.30;99.90;;;;;;4590029;19;20341;-26
2022/09/11 07:03:25;;;;;;;;;;;20.40;99.90;;;;;;4594843;19;19915;-24
2022/09/11 07:04:56;;;;;;;;;;;20.40;99.90;;;;;;4595039;19;20338;-26
2022/09/11 07:06:27;;;;;;;;;;;20.40;99.90;;;;;;4594805;19;20401;-27
2022/09/11 07:07:58;;;;;;;;;;;20.40;99.90;;;;;;4593030;19;20294;-27
2022/09/11 07:09:29;;;;;;;;;;;20.50;99.90;;;;;;4592590;19;19923;-25
2022/09/11 07:11:02;;;;;;;;;;;20.40;99.90;;;;;;4593414;19;19919;-24
2022/09/11 07:12:33;;;;;;;;;;;20.50;99.90;;;;;;4594262;19;19915;-26
2022/09/11 07:14:05;;;;;;;;;;;20.50;99.90;;;;;;4594812;19;19942;-25
2022/09/11 07:15:36;;;;;;;;;;;20.50;99.90;;;;;;4594907;19;19939;-25
2022/09/11 07:17:07;;;;;;;;;;;20.50;99.90;;;;;;4594888;19;20337;-26
2022/09/11 07:18:39;;;;;;;;;;;20.50;99.90;;;;;;4595169;19;19941;-25
2022/09/11 07:20:10;;;;;;;;;;;20.50;99.90;;;;;;4594749;19;19934;-25
2022/09/11 07:21:41;;;;;;;;;;;20.50;99.90;;;;;;4594392;19;19925;-25
2022/09/11 07:23:12;;;;;;;;;;;20.50;99.90;;;;;;4592553;19;19938;-25
2022/09/11 07:24:46;;;;;;;;;;;20.40;99.90;;;;;;4592533;19;19923;-26
2022/09/11 07:26:17;;;;;;;;;;;20.50;99.90;;;;;;4592267;19;20337;-25
2022/09/11 07:27:49;;;;;;;;;;;20.40;99.90;;;;;;4590087;19;19968;-25
2022/09/11 07:29:21;;;;;;;;;;;20.40;99.90;;;;;;4594939;19;19930;-26
2022/09/11 07:30:52;;;;;;;;;;;20.50;99.90;;;;;;4594726;19;19921;-24
2022/09/11 07:32:25;;;;;;;;;;;20.50;99.90;;;;;;4594085;19;19933;-24
2022/09/11 07:33:58;;;;;;;;;;;20.40;99.90;;;;;;4592824;19;19914;-26
2022/09/11 07:35:29;;;;;;;;;;;20.40;99.90;;;;;;4593800;19;20003;-26
2022/09/11 07:37:01;;;;;;;;;;;20.40;99.90;;;;;;4591784;19;19911;-25
2022/09/11 07:38:32;;;;;;;;;;;20.40;99.90;;;;;;4592395;19;19948;-26
2022/09/11 07:40:03;;;;;;;;;;;20.40;99.90;;;;;;4590488;19;20330;-25
2022/09/11 07:41:34;;;;;;;;;;;20.50;99.90;;;;;;4591573;19;19936;-25
2022/09/11 07:43:05;;;;;;;;;;;20.50;99.90;;;;;;4592082;19;19919;-25
2022/09/11 07:44:36;;;;;;;;;;;20.40;99.90;;;;;;4593647;19;19943;-25
2022/09/11 07:46:08;;;;;;;;;;;20.40;99.90;;;;;;4593611;19;19935;-25
2022/09/11 07:47:40;;;;;;;;;;;20.40;99.90;;;;;;4591706;19;20246;-25
2022/09/11 07:49:13;;;;;;;;;;;20.40;99.90;;;;;;4593363;19;19923;-26
2022/09/11 07:51:01;;;;;;;;;;;20.50;99.90;;;;;;4592776;19;19918;-25
2022/09/11 07:52:32;;;;;;;;;;;20.50;99.90;;;;;;4593778;19;19931;-25
2022/09/11 07:54:04;;;;;;;;;;;20.50;99.90;;;;;;4593422;19;19918;-25
2022/09/11 07:55:35;;;;;;;;;;;20.50;99.90;;;;;;4592609;19;19930;-26
2022/09/11 07:57:06;;;;;;;;;;;20.50;99.90;;;;;;4592162;19;19975;-25
2022/09/11 07:58:38;;;;;;;;;;;20.60;99.90;;;;;;4592407;19;20350;-25
2022/09/11 08:00:09;;;;;;;;;;;20.50;99.90;;;;;;4590824;19;19918;-24
2022/09/11 08:01:41;;;;;;;;;;;20.50;99.90;;;;;;4594119;19;19922;-25
2022/09/11 08:03:13;;;;;;;;;;;20.50;99.90;;;;;;4594047;19;19918;-25
2022/09/11 08:04:44;;;;;;;;;;;20.50;99.90;;;;;;4591550;19;19954;-25
2022/09/11 08:06:16;;;;;;;;;;;20.50;99.90;;;;;;4592552;19;19915;-25
2022/09/11 08:07:48;;;;;;;;;;;20.50;99.90;;;;;;4590911;19;19998;-26
2022/09/11 08:09:19;;;;;;;;;;;20.40;99.90;;;;;;4592315;19;19943;-25
2022/09/11 08:10:51;;;;;;;;;;;20.40;99.90;;;;;;4592349;19;19922;-25
2022/09/11 08:12:22;;;;;;;;;;;20.40;99.90;;;;;;4591359;19;19923;-25
2022/09/11 08:13:54;;;;;;;;;;;20.40;99.90;;;;;;4591010;19;20360;-25
2022/09/11 08:15:26;;;;;;;;;;;20.40;99.90;;;;;;4591035;19;19915;-26
2022/09/11 08:16:57;;;;;;;;;;;20.40;99.90;;;;;;4593422;19;19931;-25
2022/09/11 08:18:28;;;;;;;;;;;20.40;99.90;;;;;;4593627;19;20394;-25
2022/09/11 08:19:59;;;;;;;;;;;20.40;99.90;;;;;;4593923;19;20268;-25
2022/09/11 08:21:31;;;;;;;;;;;20.30;99.90;;;;;;4592008;19;19980;-26
2022/09/11 08:25:27;;;;;;;;;;;20.30;99.90;;;;;;4593977;19;19914;-25
2022/09/11 08:27:04;;;;;;;;;;;20.30;99.90;;;;;;4590291;19;19926;-25
2022/09/11 08:33:05;;;;;;;;;;;20.30;99.90;;;;;;4590932;19;19994;-28
2022/09/11 08:34:44;;;;;;;;;;;20.30;99.90;;;;;;4590132;19;20266;-27
2022/09/11 08:36:16;;;;;;;;;;;20.30;99.90;;;;;;4589413;19;20055;-24
2022/09/11 08:37:51;;;;;;;;;;;20.30;99.90;;;;;;4591291;19;20284;-25
2022/09/11 08:39:24;;;;;;;;;;;20.20;99.90;;;;;;4590008;19;19915;-25
2022/09/11 08:41:19;;;;;;;;;;;20.20;99.90;;;;;;4588113;19;20284;-24
2022/09/11 08:45:28;;;;;;;;;;;20.20;99.90;;;;;;4589675;19;19923;-27
2022/09/11 08:47:17;;;;;;;;;;;20.30;99.90;;;;;;4590433;19;19915;-26
2022/09/11 08:49:07;;;;;;;;;;;20.30;99.90;;;;;;4591234;19;19923;-27
2022/09/11 08:53:24;;;;;;;;;;;20.20;99.90;;;;;;4590285;19;19910;-27
2022/09/11 08:55:01;;;;;;;;;;;20.20;99.90;;;;;;4590287;19;19951;-25
2022/09/11 08:58:48;;;;;;;;;;;20.20;99.90;;;;;;4590878;19;20325;-27
2022/09/11 09:02:55;;;;;;;;;;;20.20;99.90;;;;;;4589706;19;19914;-26
2022/09/11 09:09:19;;;;;;;;;;;20.20;99.90;;;;;;4588664;19;20026;-26
2022/09/11 09:10:52;;;;;;;;;;;20.10;99.90;;;;;;4588640;19;19960;-26
2022/09/11 09:12:44;;;;;;;;;;;20.20;99.90;;;;;;4590335;19;19925;-26
2022/09/11 09:14:21;;;;;;;;;;;20.10;99.90;;;;;;4589501;19;19983;-28
2022/09/11 09:16:06;;;;;;;;;;;20.10;99.90;;;;;;4587840;19;19932;-25
2022/09/11 09:17:50;;;;;;;;;;;20.20;99.90;;;;;;4589967;19;19978;-25
2022/09/11 09:19:48;;;;;;;;;;;20.20;99.90;;;;;;4589940;19;19919;-25
2022/09/11 09:21:58;;;;;;;;;;;20.10;99.90;;;;;;4589184;19;20354;-25
2022/09/11 10:24:33;;;;;;;;;;;20.40;99.90;;;;;;4587109;19;19919;-25